Time;durP1;ratioP1;P1;durP2;ratioP2;P2;SDS_P1;SDS_P2;PMS_P1;PMS_P2;Temp;Humidity;BMP_temperature;BMP_pressure;BME280_temperature;BME280_humidity;BME280_pressure;Samples;Min_cycle;Max_cycle;Signal;HPM_P1;HPM_P2
2022/10/11 00:00:36;;;;;;;4.05;1.33;;;8.10;99.90;;;;;;5023952;28;20569;-75
2022/10/11 00:03:03;;;;;;;3.47;1.27;;;8.10;99.90;;;;;;5024474;28;20568;-75
2022/10/11 00:05:29;;;;;;;7.20;1.92;;;8.10;99.90;;;;;;5023686;28;20046;-75
2022/10/11 00:07:54;;;;;;;6.85;2.25;;;8.10;99.90;;;;;;5005782;28;20377;-75
2022/10/11 00:10:20;;;;;;;5.35;1.60;;;8.10;99.90;;;;;;5024587;28;20046;-75
2022/10/11 00:12:47;;;;;;;3.42;1.17;;;8.00;99.90;;;;;;5023485;28;20046;-76
2022/10/11 00:15:17;;;;;;;7.53;2.75;;;8.00;99.90;;;;;;5006444;28;20053;-75
2022/10/11 00:17:43;;;;;;;2.60;1.67;;;8.00;99.90;;;;;;5006101;28;20069;-75
2022/10/11 00:20:10;;;;;;;2.97;1.40;;;7.90;99.90;;;;;;5022852;28;20038;-77
2022/10/11 00:22:37;;;;;;;2.30;1.15;;;8.00;99.90;;;;;;5005793;28;20045;-75
2022/10/11 00:25:05;;;;;;;2.10;0.88;;;7.90;99.90;;;;;;5023907;28;20048;-76
2022/10/11 00:27:32;;;;;;;3.90;1.92;;;7.90;99.90;;;;;;5024015;28;20042;-75
2022/10/11 00:29:58;;;;;;;2.25;1.20;;;7.90;99.90;;;;;;5023610;28;20099;-76
2022/10/11 00:32:24;;;;;;;3.65;1.60;;;7.90;99.90;;;;;;5023937;28;20033;-75
2022/10/11 00:34:49;;;;;;;2.75;1.15;;;7.80;99.90;;;;;;5005402;28;20054;-76
2022/10/11 00:37:15;;;;;;;2.80;1.05;;;7.80;99.90;;;;;;5022774;28;20482;-75
2022/10/11 00:39:40;;;;;;;4.07;1.38;;;7.80;99.90;;;;;;5005859;28;20042;-75
2022/10/11 00:42:12;;;;;;;4.57;1.60;;;7.80;99.90;;;;;;5023402;28;20400;-76
2022/10/11 00:44:42;;;;;;;6.43;1.60;;;7.70;99.90;;;;;;5005347;28;20042;-75
2022/10/11 00:47:16;;;;;;;4.40;1.98;;;7.70;99.90;;;;;;5023431;28;20049;-76
2022/10/11 00:49:48;;;;;;;2.83;1.33;;;7.70;99.90;;;;;;5023205;28;20041;-75
2022/10/11 00:52:30;;;;;;;6.68;1.30;;;7.70;99.90;;;;;;5004576;28;20049;-75
2022/10/11 00:54:58;;;;;;;2.42;0.93;;;7.70;99.90;;;;;;5023381;28;20057;-76
2022/10/11 00:57:27;;;;;;;2.78;1.45;;;7.60;99.90;;;;;;5023213;28;20411;-76
2022/10/11 00:59:54;;;;;;;7.30;1.65;;;7.60;99.90;;;;;;5022934;28;20041;-75
2022/10/11 01:02:22;;;;;;;3.08;1.45;;;7.60;99.90;;;;;;5023191;28;20056;-75
2022/10/11 01:04:49;;;;;;;1.90;1.42;;;7.60;99.90;;;;;;5005427;28;20080;-75
2022/10/11 01:07:16;;;;;;;4.03;1.75;;;7.60;99.90;;;;;;5022200;28;20099;-75
2022/10/11 01:09:41;;;;;;;4.30;2.05;;;7.60;99.90;;;;;;5022753;28;20439;-75
2022/10/11 01:12:16;;;;;;;6.60;1.85;;;7.60;99.90;;;;;;5023214;28;20049;-75
2022/10/11 01:14:53;;;;;;;1.27;1.17;;;7.70;99.90;;;;;;5023107;28;20050;-75
2022/10/11 01:17:35;;;;;;;2.72;1.30;;;7.70;99.90;;;;;;5023177;28;20053;-75
2022/10/11 01:20:31;;;;;;;2.00;1.45;;;7.70;99.90;;;;;;5005332;28;20395;-76
2022/10/11 01:23:18;;;;;;;5.03;2.47;;;7.60;99.90;;;;;;5022554;28;20341;-75
2022/10/11 01:26:04;;;;;;;2.42;1.42;;;7.60;99.90;;;;;;5004843;28;20100;-75
2022/10/11 01:29:07;;;;;;;1.08;1.00;;;7.60;99.90;;;;;;5005614;28;20057;-75
2022/10/11 01:31:57;;;;;;;3.08;2.42;;;7.60;99.90;;;;;;5022461;28;20456;-74
2022/10/11 01:34:35;;;;;;;7.55;1.55;;;7.60;99.90;;;;;;5002944;28;20053;-76
2022/10/11 01:37:09;;;;;;;2.20;1.38;;;7.60;99.90;;;;;;4984914;28;20089;-75
2022/10/11 01:39:41;;;;;;;4.10;1.50;;;7.50;99.90;;;;;;5015037;28;20050;-76
2022/10/11 01:42:10;;;;;;;3.17;1.40;;;7.60;99.90;;;;;;5022985;28;20037;-76
2022/10/11 01:44:38;;;;;;;2.67;1.63;;;7.60;99.90;;;;;;5005119;28;20053;-75
2022/10/11 01:47:04;;;;;;;3.28;1.90;;;7.60;99.90;;;;;;5022736;28;20069;-74
2022/10/11 01:49:30;;;;;;;3.92;1.83;;;7.60;99.90;;;;;;5022844;28;20045;-75
2022/10/11 01:51:59;;;;;;;4.93;1.77;;;7.50;99.90;;;;;;5004155;28;20037;-75
2022/10/11 01:54:40;;;;;;;5.15;2.13;;;7.50;99.90;;;;;;5022301;28;20318;-75
2022/10/11 01:57:28;;;;;;;2.90;1.20;;;7.50;99.90;;;;;;5006560;28;20046;-75
2022/10/11 02:00:12;;;;;;;3.80;2.72;;;7.50;99.90;;;;;;5026376;28;20183;-75
2022/10/11 02:02:53;;;;;;;13.95;2.13;;;7.50;99.90;;;;;;5026307;28;20049;-74
2022/10/11 02:05:21;;;;;;;1.77;1.48;;;7.50;99.90;;;;;;5007858;28;20050;-76
2022/10/11 02:07:50;;;;;;;4.70;1.35;;;7.50;99.90;;;;;;5007909;28;20049;-75
2022/10/11 02:10:24;;;;;;;5.80;1.92;;;7.40;99.90;;;;;;5026713;28;20049;-75
2022/10/11 02:13:07;;;;;;;2.15;0.98;;;7.40;99.90;;;;;;4991788;28;20053;-75
2022/10/11 02:15:34;;;;;;;;;;;7.40;99.90;;;;;;5009165;28;20041;-76
2022/10/11 02:18:03;;;;;;;1.88;0.90;;;7.40;99.90;;;;;;5008095;28;19921;-75
2022/10/11 02:20:32;;;;;;;2.90;1.58;;;7.40;99.90;;;;;;5025641;28;20037;-75
2022/10/11 02:23:09;;;;;;;2.30;1.98;;;7.40;99.90;;;;;;5026727;28;20077;-75
2022/10/11 02:25:35;;;;;;;3.97;1.70;;;7.40;99.90;;;;;;5013157;28;20512;-76
2022/10/11 02:28:07;;;;;;;2.63;1.02;;;7.30;99.90;;;;;;5008974;28;20050;-75
2022/10/11 02:30:34;;;;;;;3.60;1.60;;;7.30;99.90;;;;;;5008540;28;20050;-75
2022/10/11 02:33:04;;;;;;;2.28;1.35;;;7.30;99.90;;;;;;5026524;28;20045;-75
2022/10/11 02:35:34;;;;;;;1.90;1.70;;;7.30;99.90;;;;;;5007897;28;20440;-75
2022/10/11 02:38:26;;;;;;;5.55;1.67;;;7.30;99.90;;;;;;5025741;28;20296;-75
2022/10/11 02:41:14;;;;;;;4.33;1.97;;;7.20;99.90;;;;;;5008693;28;20061;-76
2022/10/11 02:43:46;;;;;;;2.90;1.25;;;7.20;99.90;;;;;;5007910;28;20041;-76
2022/10/11 02:46:13;;;;;;;3.85;1.45;;;7.20;99.90;;;;;;5026086;28;20419;-75
2022/10/11 02:48:38;;;;;;;1.65;0.98;;;7.10;99.90;;;;;;5024934;28;20048;-75
2022/10/11 02:51:04;;;;;;;3.05;1.35;;;7.10;99.90;;;;;;5025238;28;20048;-75
2022/10/11 02:53:30;;;;;;;1.35;1.25;;;7.20;99.90;;;;;;5026048;28;20073;-75
2022/10/11 02:55:56;;;;;;;3.42;2.28;;;7.20;99.90;;;;;;5025415;28;20549;-74
2022/10/11 02:58:22;;;;;;;3.25;2.10;;;7.20;99.90;;;;;;5025540;28;20491;-75
2022/10/11 03:00:48;;;;;;;3.05;1.70;;;7.20;99.90;;;;;;5025354;28;20056;-76
2022/10/11 03:03:14;;;;;;;2.88;0.90;;;7.30;99.90;;;;;;5025247;28;20045;-75
2022/10/11 03:05:40;;;;;;;2.15;1.23;;;7.30;99.90;;;;;;5024607;28;20041;-75
2022/10/11 03:08:14;;;;;;;3.70;1.50;;;7.30;99.90;;;;;;5023842;28;20037;-75
2022/10/11 03:10:40;;;;;;;9.35;2.33;;;7.30;99.90;;;;;;5025055;28;20053;-75
2022/10/11 03:13:06;;;;;;;4.10;1.20;;;7.30;99.90;;;;;;5025229;28;20044;-75
2022/10/11 03:15:32;;;;;;;2.05;1.00;;;7.30;99.90;;;;;;5025050;28;20412;-75
2022/10/11 03:17:57;;;;;;;4.78;1.63;;;7.30;99.90;;;;;;5025320;28;20053;-75
2022/10/11 03:20:23;;;;;;;3.85;1.40;;;7.30;99.90;;;;;;5006664;28;20076;-75
2022/10/11 03:22:49;;;;;;;7.32;1.90;;;7.40;99.90;;;;;;5024622;28;20045;-75
2022/10/11 03:25:15;;;;;;;2.47;2.20;;;7.40;99.90;;;;;;5007361;28;20400;-75
2022/10/11 03:27:40;;;;;;;4.95;2.78;;;7.50;99.90;;;;;;5024468;28;20049;-75
2022/10/11 03:30:07;;;;;;;4.95;1.80;;;7.50;99.90;;;;;;5007298;28;20053;-74
2022/10/11 03:32:33;;;;;;;6.85;3.05;;;7.60;99.90;;;;;;5024468;28;20054;-76
2022/10/11 03:34:59;;;;;;;3.30;1.70;;;7.60;99.90;;;;;;5006372;28;20045;-75
2022/10/11 03:37:25;;;;;;;2.72;1.08;;;7.60;99.90;;;;;;5025075;28;20408;-75
2022/10/11 03:39:50;;;;;;;5.20;2.22;;;7.60;99.90;;;;;;5024073;28;20259;-76
2022/10/11 03:42:16;;;;;;;8.23;2.10;;;7.60;99.90;;;;;;5007113;28;20060;-76
2022/10/11 03:44:41;;;;;;;5.47;2.28;;;7.70;99.90;;;;;;5006765;28;20037;-76
2022/10/11 03:47:07;;;;;;;4.68;2.15;;;7.70;99.90;;;;;;5006552;28;20050;-74
2022/10/11 03:49:33;;;;;;;2.65;1.80;;;7.70;99.90;;;;;;5006189;28;20049;-76
2022/10/11 03:51:58;;;;;;;6.15;2.10;;;7.70;99.90;;;;;;5006865;28;20053;-75
2022/10/11 03:54:24;;;;;;;5.40;2.42;;;7.80;99.90;;;;;;5024951;28;20037;-75
2022/10/11 03:56:50;;;;;;;4.07;1.63;;;7.80;99.90;;;;;;5006548;28;20092;-76
2022/10/11 03:59:16;;;;;;;1.95;1.20;;;7.80;99.90;;;;;;5024398;28;20053;-75
2022/10/11 04:01:41;;;;;;;2.90;1.42;;;7.80;99.90;;;;;;5024115;28;20095;-76
2022/10/11 04:04:07;;;;;;;2.63;1.40;;;7.80;99.90;;;;;;5024380;28;20072;-76
2022/10/11 04:06:32;;;;;;;6.55;1.70;;;7.80;99.90;;;;;;5023179;28;20447;-76
2022/10/11 04:08:58;;;;;;;2.83;1.45;;;7.80;99.90;;;;;;5024452;28;20392;-75
2022/10/11 04:11:24;;;;;;;3.20;1.40;;;7.80;99.90;;;;;;5006606;28;20053;-76
2022/10/11 04:13:49;;;;;;;2.05;1.85;;;7.80;99.90;;;;;;5023910;28;20037;-75
2022/10/11 04:16:15;;;;;;;2.67;1.75;;;7.90;99.90;;;;;;5023697;28;20109;-75
2022/10/11 04:18:40;;;;;;;3.63;2.03;;;7.90;99.90;;;;;;5024032;28;20085;-75
2022/10/11 04:21:06;;;;;;;5.30;2.00;;;7.90;99.90;;;;;;4988553;28;20462;-75
2022/10/11 04:23:32;;;;;;;3.50;1.65;;;7.90;99.90;;;;;;5023866;28;20128;-76
2022/10/11 04:25:58;;;;;;;8.60;2.58;;;7.90;99.90;;;;;;5006012;28;20041;-75
2022/10/11 04:28:24;;;;;;;6.50;2.10;;;8.00;99.90;;;;;;5024339;28;20462;-75
2022/10/11 04:30:51;;;;;;;3.40;2.65;;;8.00;99.90;;;;;;5023192;28;20045;-75
2022/10/11 04:33:17;;;;;;;4.10;1.95;;;8.00;99.90;;;;;;5038517;28;20092;-75
2022/10/11 04:35:42;;;;;;;3.50;1.58;;;7.90;99.90;;;;;;5023075;28;20037;-75
2022/10/11 04:38:08;;;;;;;3.55;1.25;;;7.90;99.90;;;;;;5005385;28;20056;-75
2022/10/11 04:40:34;;;;;;;4.18;2.20;;;7.90;99.90;;;;;;5023239;28;20046;-75
2022/10/11 04:42:59;;;;;;;3.38;2.05;;;7.90;99.90;;;;;;5023863;28;20225;-74
2022/10/11 04:45:25;;;;;;;3.10;1.45;;;7.90;99.90;;;;;;5023396;28;20088;-75
2022/10/11 04:47:51;;;;;;;8.95;1.67;;;7.90;99.90;;;;;;5023522;28;20064;-75
2022/10/11 04:50:17;;;;;;;4.88;2.08;;;7.90;99.90;;;;;;5022429;28;20061;-76
2022/10/11 04:52:42;;;;;;;2.58;1.50;;;7.80;99.90;;;;;;5006005;28;20120;-76
2022/10/11 04:55:09;;;;;;;5.10;1.67;;;7.80;99.90;;;;;;5023070;28;20044;-76
2022/10/11 04:57:34;;;;;;;3.15;1.83;;;7.80;99.90;;;;;;5022731;28;20128;-75
2022/10/11 05:00:03;;;;;;;14.07;2.17;;;7.80;99.90;;;;;;5023558;28;20132;-75
2022/10/11 05:02:28;;;;;;;3.25;1.90;;;7.80;99.90;;;;;;5004931;28;20653;-76
2022/10/11 05:04:54;;;;;;;3.58;1.20;;;7.80;99.90;;;;;;5022494;28;20081;-75
2022/10/11 05:07:19;;;;;;;3.10;1.77;;;7.70;99.90;;;;;;5020514;28;20049;-75
2022/10/11 05:09:45;;;;;;;2.95;1.48;;;7.70;99.90;;;;;;5032371;28;20041;-75
2022/10/11 05:12:11;;;;;;;4.60;2.20;;;7.70;99.90;;;;;;5034412;28;20077;-76
2022/10/11 05:14:36;;;;;;;6.30;2.60;;;7.70;99.90;;;;;;5021601;28;20408;-76
2022/10/11 05:17:02;;;;;;;2.25;2.03;;;7.80;99.90;;;;;;5005603;28;20049;-76
2022/10/11 05:19:27;;;;;;;7.85;1.95;;;7.70;99.90;;;;;;5022566;28;20450;-75
2022/10/11 05:21:54;;;;;;;2.13;1.25;;;7.70;99.90;;;;;;5022335;28;20430;-76
2022/10/11 05:24:20;;;;;;;4.32;2.97;;;7.70;99.90;;;;;;5021257;28;20048;-76
2022/10/11 05:26:45;;;;;;;5.22;2.28;;;7.70;99.90;;;;;;5004878;28;20050;-74
2022/10/11 05:29:11;;;;;;;9.57;3.15;;;7.60;99.90;;;;;;5022170;28;20077;-75
2022/10/11 05:31:36;;;;;;;3.25;1.52;;;7.60;99.90;;;;;;5021775;28;20099;-76
2022/10/11 05:34:02;;;;;;;3.08;1.35;;;7.60;99.90;;;;;;5002059;28;20046;-78
2022/10/11 05:36:27;;;;;;;3.80;1.67;;;7.60;99.90;;;;;;5032806;28;20499;-77
2022/10/11 05:38:53;;;;;;;3.08;1.70;;;7.60;99.90;;;;;;5028906;28;20048;-76
2022/10/11 05:41:19;;;;;;;8.05;2.38;;;7.60;99.90;;;;;;5005122;28;20069;-76
2022/10/11 05:43:44;;;;;;;7.88;1.80;;;7.60;99.90;;;;;;5026131;28;20042;-76
2022/10/11 05:46:11;;;;;;;4.20;1.50;;;7.70;99.90;;;;;;5023362;28;20060;-76
2022/10/11 05:48:37;;;;;;;3.70;1.92;;;7.70;99.90;;;;;;5022096;28;20037;-76
2022/10/11 05:51:05;;;;;;;4.63;2.50;;;7.60;99.90;;;;;;5021753;28;20442;-76
2022/10/11 05:53:31;;;;;;;6.30;2.63;;;7.70;99.90;;;;;;5023732;28;20136;-76
2022/10/11 05:55:56;;;;;;;5.63;2.10;;;7.70;99.90;;;;;;5022417;28;20048;-76
2022/10/11 05:58:22;;;;;;;6.07;1.98;;;7.70;99.90;;;;;;5016899;28;20049;-76
2022/10/11 06:00:48;;;;;;;5.05;2.38;;;7.80;99.90;;;;;;5022744;28;20083;-75
2022/10/11 06:03:14;;;;;;;8.65;2.60;;;7.80;99.90;;;;;;5022965;28;20475;-77
2022/10/11 06:05:40;;;;;;;2.65;1.90;;;7.80;99.90;;;;;;5022457;28;20511;-77
2022/10/11 06:08:07;;;;;;;5.30;2.47;;;7.90;99.90;;;;;;5023706;28;20045;-81
2022/10/11 06:10:35;;;;;;;2.97;2.33;;;7.90;99.90;;;;;;5022050;28;20276;-75
2022/10/11 06:13:00;;;;;;;7.20;3.65;;;7.90;99.90;;;;;;5022269;28;20053;-77
2022/10/11 06:15:26;;;;;;;7.93;2.75;;;8.00;99.90;;;;;;5021487;28;20440;-77
2022/10/11 06:17:52;;;;;;;6.20;2.63;;;8.00;99.90;;;;;;5020038;28;20419;-77
2022/10/11 06:20:20;;;;;;;5.35;2.45;;;8.10;99.90;;;;;;5012785;28;20438;-78
2022/10/11 06:22:46;;;;;;;6.18;2.72;;;8.10;99.90;;;;;;4995624;28;20428;-77
2022/10/11 06:25:11;;;;;;;38.13;3.53;;;8.10;99.90;;;;;;4997834;28;20076;-75
2022/10/11 06:27:37;;;;;;;14.75;3.30;;;8.20;99.90;;;;;;5004669;28;20044;-76
2022/10/11 06:30:04;;;;;;;14.55;2.88;;;8.20;99.90;;;;;;5021836;28;20084;-76
2022/10/11 06:32:29;;;;;;;7.13;3.10;;;8.30;99.90;;;;;;5022022;28;20073;-76
2022/10/11 06:34:55;;;;;;;4.32;2.10;;;8.30;99.90;;;;;;5020761;28;20108;-75
2022/10/11 06:37:21;;;;;;;2.67;1.85;;;8.30;99.90;;;;;;5021713;28;20191;-76
2022/10/11 06:39:46;;;;;;;2.58;2.00;;;8.30;99.90;;;;;;5002904;28;20335;-76
2022/10/11 06:42:12;;;;;;;11.85;3.40;;;8.40;99.90;;;;;;5021827;28;20136;-76
2022/10/11 06:44:38;;;;;;;5.55;3.70;;;8.40;99.90;;;;;;5007136;28;20045;-75
2022/10/11 06:47:07;;;;;;;5.95;2.08;;;8.40;99.90;;;;;;5025204;28;20490;-76
2022/10/11 06:49:33;;;;;;;7.65;2.10;;;8.40;99.90;;;;;;5023929;28;20041;-76
2022/10/11 06:51:59;;;;;;;16.58;2.65;;;8.40;99.90;;;;;;5025338;28;20041;-76
2022/10/11 06:54:25;;;;;;;7.40;2.15;;;8.40;99.90;;;;;;5024514;28;20392;-76
2022/10/11 06:56:50;;;;;;;4.15;1.60;;;8.50;99.90;;;;;;5006758;28;20042;-75
2022/10/11 06:59:16;;;;;;;13.07;2.40;;;8.50;99.90;;;;;;5025076;28;20044;-75
2022/10/11 07:01:41;;;;;;;10.25;3.08;;;8.50;99.90;;;;;;5024585;28;20451;-76
2022/10/11 07:04:07;;;;;;;9.90;4.72;;;8.50;99.90;;;;;;5023785;28;20484;-76
2022/10/11 07:06:37;;;;;;;6.25;3.45;;;8.50;99.90;;;;;;5024835;28;20044;-75
2022/10/11 07:09:03;;;;;;;9.10;3.08;;;8.60;99.90;;;;;;5024512;28;20518;-77
2022/10/11 07:11:29;;;;;;;4.47;2.28;;;8.60;99.90;;;;;;5025435;28;20052;-75
2022/10/11 07:13:58;;;;;;;3.92;2.85;;;8.70;99.90;;;;;;5006450;28;20326;-75
2022/10/11 07:16:24;;;;;;;6.43;2.78;;;8.70;99.90;;;;;;5024562;28;20450;-75
2022/10/11 07:18:55;;;;;;;5.20;2.60;;;8.70;99.90;;;;;;5006644;28;20088;-75
2022/10/11 07:21:20;;;;;;;6.60;2.20;;;8.70;99.90;;;;;;5023236;28;20499;-75
2022/10/11 07:23:46;;;;;;;4.32;2.58;;;8.80;99.90;;;;;;5024302;28;20129;-75
2022/10/11 07:26:12;;;;;;;3.42;1.60;;;8.80;99.90;;;;;;5024517;28;20065;-75
2022/10/11 07:28:39;;;;;;;10.65;2.28;;;8.80;99.90;;;;;;5006232;28;20370;-75
2022/10/11 07:31:15;;;;;;;3.83;1.50;;;8.90;99.90;;;;;;5024337;28;20115;-75
2022/10/11 07:33:41;;;;;;;4.75;2.58;;;8.90;99.90;;;;;;5024631;28;20045;-75
2022/10/11 07:36:07;;;;;;;6.85;2.75;;;9.00;99.90;;;;;;5023219;28;20046;-75
2022/10/11 07:38:33;;;;;;;14.88;2.72;;;9.10;99.90;;;;;;5024051;28;20064;-76
2022/10/11 07:41:04;;;;;;;9.93;3.05;;;9.10;99.90;;;;;;5024802;28;20037;-75
2022/10/11 07:43:30;;;;;;;8.15;2.97;;;9.20;99.90;;;;;;5007299;28;20384;-76
2022/10/11 07:45:55;;;;;;;12.27;2.53;;;9.30;99.90;;;;;;5023869;28;20046;-75
2022/10/11 07:48:21;;;;;;;5.07;2.83;;;9.40;99.90;;;;;;5039533;28;20523;-76
2022/10/11 07:50:47;;;;;;;4.30;2.22;;;9.40;99.90;;;;;;5038358;28;20041;-76
2022/10/11 07:53:13;;;;;;;7.18;2.30;;;9.50;99.90;;;;;;5024007;28;20041;-76
2022/10/11 07:55:39;;;;;;;7.55;2.83;;;9.60;99.90;;;;;;5023087;28;20100;-75
2022/10/11 07:58:06;;;;;;;7.10;2.65;;;9.60;99.90;;;;;;5023952;28;20041;-75
2022/10/11 08:00:32;;;;;;;2.55;1.55;;;9.60;99.90;;;;;;5023411;28;20480;-76
2022/10/11 08:02:57;;;;;;;10.82;4.80;;;9.70;99.90;;;;;;5024150;28;20049;-76
2022/10/11 08:05:23;;;;;;;9.82;2.28;;;9.70;99.90;;;;;;5022637;28;20038;-76
2022/10/11 08:07:48;;;;;;;4.45;1.95;;;9.70;99.90;;;;;;5023824;28;20077;-76
2022/10/11 08:10:14;;;;;;;5.15;2.22;;;9.80;99.90;;;;;;5023567;28;20045;-76
2022/10/11 08:12:40;;;;;;;4.82;2.67;;;9.80;99.90;;;;;;5023392;28;20048;-77
2022/10/11 08:15:06;;;;;;;3.45;2.28;;;9.90;99.90;;;;;;5005761;28;20049;-76
2022/10/11 08:17:31;;;;;;;16.67;3.28;;;9.90;99.90;;;;;;5023195;28;20211;-76
2022/10/11 08:19:57;;;;;;;10.93;4.30;;;10.00;99.90;;;;;;5022902;28;20053;-76
2022/10/11 08:22:22;;;;;;;7.28;2.63;;;10.10;99.90;;;;;;5023459;28;21414;-75
2022/10/11 08:24:48;;;;;;;8.70;2.35;;;10.10;99.90;;;;;;5017282;28;20042;-77
2022/10/11 08:27:14;;;;;;;4.47;1.98;;;10.20;99.90;;;;;;5003841;28;20034;-77
2022/10/11 08:29:39;;;;;;;7.60;2.95;;;10.20;99.90;;;;;;5003095;28;20077;-76
2022/10/11 08:32:05;;;;;;;6.00;3.08;;;10.30;99.90;;;;;;5003525;28;20042;-76
2022/10/11 08:34:30;;;;;;;4.25;2.30;;;10.40;99.90;;;;;;5003135;28;20378;-75
2022/10/11 08:36:56;;;;;;;4.30;1.77;;;10.40;99.90;;;;;;5002907;28;20284;-77
2022/10/11 08:39:21;;;;;;;6.70;2.15;;;10.50;99.90;;;;;;5003482;28;20132;-77
2022/10/11 08:41:53;;;;;;;13.45;2.88;;;10.50;99.90;;;;;;5003074;28;20042;-75
2022/10/11 08:44:34;;;;;;;4.90;2.17;;;10.60;99.90;;;;;;5003246;28;20420;-76
2022/10/11 08:47:24;;;;;;;12.85;2.30;;;10.70;99.90;;;;;;5003159;28;20212;-76
2022/10/11 08:49:50;;;;;;;3.25;1.65;;;10.80;99.90;;;;;;4976305;28;20591;-77
2022/10/11 08:52:36;;;;;;;5.93;2.00;;;10.90;99.90;;;;;;5003027;28;20080;-76
2022/10/11 08:55:06;;;;;;;7.95;2.35;;;10.90;99.90;;;;;;5003055;28;20049;-75
2022/10/11 08:57:35;;;;;;;6.15;2.67;;;11.00;99.90;;;;;;5002745;28;20038;-76
2022/10/11 09:00:09;;;;;;;5.88;2.00;;;11.00;99.90;;;;;;4986514;28;20404;-77
2022/10/11 09:03:26;;;;;;;9.65;3.33;;;11.10;99.90;;;;;;5002810;28;20045;-77
2022/10/11 09:06:35;;;;;;;4.45;1.80;;;11.10;99.90;;;;;;4968294;28;20062;-76
2022/10/11 09:09:43;;;;;;;2.65;1.70;;;11.20;99.90;;;;;;5003707;28;20045;-78
2022/10/11 09:12:33;;;;;;;4.10;1.88;;;11.30;99.90;;;;;;5002974;28;20049;-77
2022/10/11 09:15:14;;;;;;;4.32;1.30;;;11.40;99.90;;;;;;4985839;28;20128;-77
2022/10/11 09:17:45;;;;;;;13.30;2.45;;;11.50;99.90;;;;;;4984712;28;20045;-76
2022/10/11 09:20:26;;;;;;;4.93;2.10;;;11.50;99.90;;;;;;4984657;28;20252;-77
2022/10/11 09:23:22;;;;;;;4.13;1.40;;;11.60;99.90;;;;;;5002629;28;20053;-75
2022/10/11 09:25:59;;;;;;;8.30;2.42;;;11.70;99.90;;;;;;5016317;28;20049;-77
2022/10/11 09:29:09;;;;;;;10.82;2.53;;;11.80;99.90;;;;;;5037674;28;20061;-77
2022/10/11 09:31:34;;;;;;;4.22;1.75;;;11.80;99.90;;;;;;5020996;28;20091;-77
2022/10/11 09:34:12;;;;;;;5.32;2.25;;;11.90;99.90;;;;;;5021789;28;20046;-77
2022/10/11 09:37:02;;;;;;;3.08;1.42;;;12.00;99.90;;;;;;5003726;28;20045;-76
2022/10/11 09:39:34;;;;;;;2.95;1.98;;;12.00;99.90;;;;;;5030643;28;20046;-75
2022/10/11 09:42:04;;;;;;;12.18;2.75;;;12.10;99.90;;;;;;5006292;28;20045;-76
2022/10/11 09:44:35;;;;;;;2.33;1.63;;;12.10;99.90;;;;;;5005888;28;20053;-76
2022/10/11 09:47:01;;;;;;;1.70;1.33;;;12.20;99.90;;;;;;5019178;28;20042;-76
2022/10/11 09:50:02;;;;;;;4.10;1.65;;;12.30;99.90;;;;;;5002530;28;20361;-76
2022/10/11 09:52:29;;;;;;;10.55;2.38;;;12.30;99.90;;;;;;4986256;28;20050;-78
2022/10/11 09:55:00;;;;;;;3.88;2.08;;;12.40;99.90;;;;;;4992644;28;20041;-76
2022/10/11 09:57:29;;;;;;;6.93;2.08;;;12.50;99.90;;;;;;5004931;28;20049;-78
2022/10/11 10:00:16;;;;;;;6.88;1.80;;;12.50;99.90;;;;;;4993154;28;20068;-76
2022/10/11 10:03:01;;;;;;;3.20;1.70;;;12.60;99.90;;;;;;5001031;28;20503;-75
2022/10/11 10:05:32;;;;;;;3.45;1.60;;;12.70;99.90;;;;;;5000812;28;20080;-77
2022/10/11 10:08:10;;;;;;;3.10;1.97;;;12.70;99.90;;;;;;5023645;28;20132;-77
2022/10/11 10:10:44;;;;;;;8.98;2.40;;;12.80;99.90;;;;;;5017110;28;20052;-77
2022/10/11 10:13:36;;;;;;;3.80;1.83;;;12.80;99.90;;;;;;5022457;28;20632;-77
2022/10/11 10:16:02;;;;;;;1.95;1.48;;;12.90;99.90;;;;;;4998947;28;20092;-75
2022/10/11 10:18:35;;;;;;;9.63;2.85;;;12.90;99.90;;;;;;5025538;28;20125;-76
2022/10/11 10:21:01;;;;;;;;;;;12.90;99.90;;;;;;5028248;28;20037;-77
2022/10/11 10:23:33;;;;;;;6.03;1.65;;;13.00;99.90;;;;;;5009254;28;19960;-77
2022/10/11 10:26:20;;;;;;;3.25;1.73;;;13.00;99.90;;;;;;5011630;28;20038;-76
2022/10/11 10:29:07;;;;;;;0.98;0.80;;;13.00;99.90;;;;;;5006842;28;20511;-78
2022/10/11 10:31:48;;;;;;;4.28;2.05;;;13.10;99.90;;;;;;5023691;28;20053;-75
2022/10/11 10:34:22;;;;;;;5.20;1.60;;;13.10;99.90;;;;;;5026183;28;20042;-78
2022/10/11 10:37:24;;;;;;;11.40;2.10;;;13.10;99.90;;;;;;5008533;28;20045;-77
2022/10/11 10:40:21;;;;;;;3.00;1.80;;;13.20;99.90;;;;;;5005936;28;20136;-77
2022/10/11 10:42:48;;;;;;;4.15;1.77;;;13.20;99.90;;;;;;5025554;28;20542;-75
2022/10/11 10:45:16;;;;;;;3.78;1.98;;;13.20;99.90;;;;;;5017695;28;20083;-76
2022/10/11 10:48:14;;;;;;;6.72;1.83;;;13.20;99.90;;;;;;4991874;28;20410;-74
2022/10/11 10:50:53;;;;;;;5.55;2.67;;;13.20;99.90;;;;;;5017622;28;20069;-75
2022/10/11 10:53:39;;;;;;;2.88;1.85;;;13.20;99.90;;;;;;4999184;28;20052;-74
2022/10/11 10:56:14;;;;;;;5.90;2.10;;;13.20;99.90;;;;;;5018671;28;20041;-76
2022/10/11 10:59:17;;;;;;;2.22;1.83;;;13.20;99.90;;;;;;4995817;28;20629;-75
2022/10/11 11:02:07;;;;;;;2.45;1.23;;;13.30;99.90;;;;;;5025749;28;20049;-75
2022/10/11 11:04:34;;;;;;;3.13;1.25;;;13.30;99.90;;;;;;5006664;28;20499;-76
2022/10/11 11:07:08;;;;;;;5.53;2.05;;;13.40;99.90;;;;;;5008926;28;20038;-76
2022/10/11 11:09:46;;;;;;;5.68;1.55;;;13.40;99.90;;;;;;5025704;28;20072;-76
2022/10/11 11:12:33;;;;;;;5.05;1.75;;;13.50;99.90;;;;;;5007097;28;20120;-76
2022/10/11 11:14:58;;;;;;;3.50;1.73;;;13.50;99.90;;;;;;5004907;28;20096;-76
2022/10/11 11:17:45;;;;;;;8.05;2.55;;;13.40;99.90;;;;;;5007301;28;20483;-75
2022/10/11 11:20:29;;;;;;;3.63;2.03;;;13.40;99.90;;;;;;5024847;28;20514;-76
2022/10/11 11:22:57;;;;;;;2.65;0.90;;;13.40;99.90;;;;;;5007709;28;20824;-75
2022/10/11 11:25:30;;;;;;;8.63;1.67;;;13.30;99.90;;;;;;5007979;28;20488;-77
2022/10/11 11:28:04;;;;;;;;;;;13.30;99.90;;;;;;5026097;28;20041;-77
2022/10/11 11:30:44;;;;;;;2.88;1.73;;;13.20;99.90;;;;;;5025034;28;19925;-77
2022/10/11 11:33:25;;;;;;;6.30;2.08;;;13.20;99.90;;;;;;5007669;28;20312;-76
2022/10/11 11:35:54;;;;;;;4.78;1.85;;;13.20;99.90;;;;;;4990889;28;20057;-76
2022/10/11 11:38:41;;;;;;;4.30;1.70;;;13.20;99.90;;;;;;5024822;28;20172;-76
2022/10/11 11:41:21;;;;;;;12.45;1.98;;;13.20;99.90;;;;;;5000415;28;20394;-79
2022/10/11 11:44:18;;;;;;;4.22;1.67;;;13.20;99.90;;;;;;5025258;28;20049;-76
2022/10/11 11:46:51;;;;;;;3.50;1.98;;;13.30;99.90;;;;;;5025017;28;20044;-77
2022/10/11 11:49:27;;;;;;;2.25;1.40;;;13.40;99.90;;;;;;5006822;28;20456;-76
2022/10/11 11:51:53;;;;;;;8.75;1.33;;;13.40;99.90;;;;;;5024687;28;20041;-75
2022/10/11 11:54:54;;;;;;;10.05;2.75;;;13.50;99.90;;;;;;5025148;28;20726;-76
2022/10/11 11:57:38;;;;;;;5.43;1.45;;;13.60;99.90;;;;;;5019163;28;20467;-75
2022/10/11 12:00:06;;;;;;;1.98;1.10;;;13.60;99.90;;;;;;5024873;28;20045;-77
2022/10/11 12:02:43;;;;;;;7.43;1.83;;;13.60;99.90;;;;;;5006323;28;20049;-75
2022/10/11 12:05:11;;;;;;;2.58;1.58;;;13.60;99.90;;;;;;4986825;28;20053;-76
2022/10/11 12:07:58;;;;;;;3.17;1.27;;;13.60;99.90;;;;;;5018320;28;20107;-77
2022/10/11 12:10:52;;;;;;;5.03;1.27;;;13.70;99.90;;;;;;5007526;28;20060;-76
2022/10/11 12:13:19;;;;;;;2.28;1.35;;;13.70;99.90;;;;;;5006276;28;20054;-74
2022/10/11 12:16:05;;;;;;;2.92;1.65;;;13.70;99.90;;;;;;5006214;28;20679;-76
2022/10/11 12:18:33;;;;;;;4.60;0.93;;;13.70;99.90;;;;;;4970647;28;20053;-75
2022/10/11 12:21:19;;;;;;;4.57;1.55;;;13.60;99.90;;;;;;5015798;28;20056;-76
2022/10/11 12:23:47;;;;;;;6.22;1.13;;;13.60;99.90;;;;;;5024102;28;20812;-76
2022/10/11 12:26:28;;;;;;;2.22;1.00;;;13.50;99.90;;;;;;5024681;28;20046;-77
2022/10/11 12:29:41;;;;;;;1.83;1.10;;;13.60;99.90;;;;;;4996690;28;20041;-78
2022/10/11 12:32:09;;;;;;;1.48;0.95;;;13.60;99.90;;;;;;5032442;28;20041;-75
2022/10/11 12:34:38;;;;;;;3.70;1.40;;;13.60;99.90;;;;;;5027335;28;20500;-75
2022/10/11 12:37:19;;;;;;;2.85;1.45;;;13.60;99.90;;;;;;5024353;28;20395;-74
2022/10/11 12:39:51;;;;;;;2.00;1.65;;;13.50;99.90;;;;;;5013228;28;20399;-74
2022/10/11 12:42:35;;;;;;;3.08;1.75;;;13.50;99.90;;;;;;5018804;28;20052;-75
2022/10/11 12:45:10;;;;;;;5.35;1.90;;;13.60;99.90;;;;;;5024326;28;20131;-74
2022/10/11 12:48:10;;;;;;;15.52;1.08;;;13.60;99.90;;;;;;5010390;28;20071;-75
2022/10/11 12:50:35;;;;;;;1.88;1.20;;;13.60;99.90;;;;;;5010837;28;20045;-74
2022/10/11 12:53:16;;;;;;;3.30;1.55;;;13.60;99.90;;;;;;5028643;28;20029;-74
2022/10/11 12:56:00;;;;;;;1.98;1.15;;;13.60;99.90;;;;;;5029557;28;20052;-74
2022/10/11 12:58:27;;;;;;;2.65;1.52;;;13.60;99.90;;;;;;5027390;28;20041;-74
2022/10/11 13:00:56;;;;;;;3.58;1.48;;;13.60;99.90;;;;;;5009621;28;20052;-74
2022/10/11 13:03:49;;;;;;;3.05;1.35;;;13.70;99.90;;;;;;5011999;28;20458;-74
2022/10/11 13:06:25;;;;;;;2.63;1.13;;;13.70;99.90;;;;;;5036828;28;20041;-75
2022/10/11 13:09:05;;;;;;;3.15;1.70;;;13.70;99.90;;;;;;4998596;28;20072;-75
2022/10/11 13:11:35;;;;;;;8.93;1.77;;;13.70;99.90;;;;;;5022277;28;20033;-76
2022/10/11 13:14:13;;;;;;;1.55;0.75;;;13.70;99.90;;;;;;4994429;28;20041;-76
2022/10/11 13:17:10;;;;;;;3.20;1.15;;;13.60;99.90;;;;;;5023627;28;20092;-76